sensor_id;sensor_type;location;lat;lon;timestamp;P1;durP1;ratioP1;P2;durP2;ratioP2
78205;SDS011;67480;48.920;12.880;2024-03-23T00:55:11;8.48;;;7.03;;
78205;SDS011;67480;48.920;12.880;2024-03-23T00:58:01;9.15;;;6.25;;
78205;SDS011;67480;48.920;12.880;2024-03-23T01:00:57;7.97;;;7.18;;
78205;SDS011;67480;48.920;12.880;2024-03-23T01:03:29;8.07;;;7.28;;
78205;SDS011;67480;48.920;12.880;2024-03-23T01:06:07;8.85;;;6.68;;
78205;SDS011;67480;48.920;12.880;2024-03-23T01:08:38;8.38;;;7.43;;
78205;SDS011;67480;48.920;12.880;2024-03-23T01:11:34;7.57;;;6.82;;
78205;SDS011;67480;48.920;12.880;2024-03-23T01:14:03;9.55;;;7.90;;
78205;SDS011;67480;48.920;12.880;2024-03-23T01:17:11;9.52;;;7.57;;
78205;SDS011;67480;48.920;12.880;2024-03-23T01:19:53;8.70;;;7.53;;
78205;SDS011;67480;48.920;12.880;2024-03-23T01:22:44;10.27;;;8.13;;
78205;SDS011;67480;48.920;12.880;2024-03-23T01:25:15;11.85;;;7.72;;
78205;SDS011;67480;48.920;12.880;2024-03-23T01:27:53;8.75;;;7.57;;
78205;SDS011;67480;48.920;12.880;2024-03-23T01:30:21;8.70;;;7.57;;
78205;SDS011;67480;48.920;12.880;2024-03-23T01:32:50;8.00;;;7.10;;
78205;SDS011;67480;48.920;12.880;2024-03-23T01:35:55;9.88;;;7.80;;
78205;SDS011;67480;48.920;12.880;2024-03-23T01:38:30;9.23;;;7.03;;
78205;SDS011;67480;48.920;12.880;2024-03-23T01:41:24;9.20;;;8.13;;
78205;SDS011;67480;48.920;12.880;2024-03-23T01:44:46;8.20;;;7.15;;
78205;SDS011;67480;48.920;12.880;2024-03-23T01:47:16;10.93;;;8.00;;
78205;SDS011;67480;48.920;12.880;2024-03-23T01:50:06;10.48;;;7.82;;
78205;SDS011;67480;48.920;12.880;2024-03-23T01:53:09;10.50;;;7.57;;
78205;SDS011;67480;48.920;12.880;2024-03-23T01:56:11;8.88;;;7.57;;
78205;SDS011;67480;48.920;12.880;2024-03-23T02:02:58;8.98;;;7.35;;
78205;SDS011;67480;48.920;12.880;2024-03-23T02:09:33;9.63;;;8.20;;
78205;SDS011;67480;48.920;12.880;2024-03-23T02:12:45;8.70;;;7.80;;
78205;SDS011;67480;48.920;12.880;2024-03-23T02:15:38;8.75;;;7.88;;
78205;SDS011;67480;48.920;12.880;2024-03-23T02:21:27;12.07;;;8.95;;
78205;SDS011;67480;48.920;12.880;2024-03-23T02:33:52;10.63;;;8.43;;
78205;SDS011;67480;48.920;12.880;2024-03-23T02:36:41;11.23;;;8.82;;
78205;SDS011;67480;48.920;12.880;2024-03-23T02:39:35;10.23;;;8.68;;
78205;SDS011;67480;48.920;12.880;2024-03-23T02:42:52;11.63;;;8.65;;
78205;SDS011;67480;48.920;12.880;2024-03-23T02:46:14;9.30;;;7.95;;
78205;SDS011;67480;48.920;12.880;2024-03-23T02:48:57;10.73;;;8.40;;
78205;SDS011;67480;48.920;12.880;2024-03-23T02:52:04;10.27;;;8.75;;
78205;SDS011;67480;48.920;12.880;2024-03-23T02:55:19;11.80;;;9.02;;
78205;SDS011;67480;48.920;12.880;2024-03-23T02:58:22;12.10;;;9.55;;
78205;SDS011;67480;48.920;12.880;2024-03-23T03:01:38;10.68;;;9.23;;
78205;SDS011;67480;48.920;12.880;2024-03-23T03:05:34;12.10;;;8.88;;
78205;SDS011;67480;48.920;12.880;2024-03-23T03:08:57;10.93;;;9.30;;
78205;SDS011;67480;48.920;12.880;2024-03-23T03:11:35;10.45;;;9.15;;
78205;SDS011;67480;48.920;12.880;2024-03-23T03:14:25;11.20;;;8.80;;
78205;SDS011;67480;48.920;12.880;2024-03-23T03:17:31;12.45;;;9.13;;
78205;SDS011;67480;48.920;12.880;2024-03-23T03:20:08;10.35;;;8.45;;
78205;SDS011;67480;48.920;12.880;2024-03-23T03:26:09;10.75;;;9.52;;
78205;SDS011;67480;48.920;12.880;2024-03-23T03:29:21;11.27;;;8.80;;
78205;SDS011;67480;48.920;12.880;2024-03-23T03:32:12;11.05;;;9.00;;
78205;SDS011;67480;48.920;12.880;2024-03-23T03:34:42;10.10;;;9.10;;
78205;SDS011;67480;48.920;12.880;2024-03-23T03:37:33;10.40;;;9.20;;
78205;SDS011;67480;48.920;12.880;2024-03-23T03:40:08;11.48;;;9.18;;
78205;SDS011;67480;48.920;12.880;2024-03-23T03:42:36;11.60;;;8.95;;
78205;SDS011;67480;48.920;12.880;2024-03-23T03:45:08;11.18;;;9.82;;
78205;SDS011;67480;48.920;12.880;2024-03-23T03:47:43;10.85;;;8.93;;
78205;SDS011;67480;48.920;12.880;2024-03-23T03:50:24;10.00;;;9.00;;
78205;SDS011;67480;48.920;12.880;2024-03-23T03:52:58;11.63;;;9.68;;
78205;SDS011;67480;48.920;12.880;2024-03-23T03:55:37;13.32;;;9.52;;
78205;SDS011;67480;48.920;12.880;2024-03-23T03:58:04;11.50;;;9.15;;
78205;SDS011;67480;48.920;12.880;2024-03-23T04:04:29;11.80;;;9.77;;
78205;SDS011;67480;48.920;12.880;2024-03-23T04:07:08;10.67;;;9.57;;
78205;SDS011;67480;48.920;12.880;2024-03-23T04:13:25;11.90;;;8.80;;
78205;SDS011;67480;48.920;12.880;2024-03-23T04:16:34;11.30;;;9.52;;
78205;SDS011;67480;48.920;12.880;2024-03-23T04:19:31;14.13;;;9.50;;
78205;SDS011;67480;48.920;12.880;2024-03-23T04:22:07;11.15;;;9.73;;
78205;SDS011;67480;48.920;12.880;2024-03-23T04:24:36;10.27;;;9.07;;
78205;SDS011;67480;48.920;12.880;2024-03-23T04:27:20;10.48;;;9.27;;
78205;SDS011;67480;48.920;12.880;2024-03-23T04:34:01;12.10;;;8.25;;
78205;SDS011;67480;48.920;12.880;2024-03-23T04:36:29;11.18;;;8.80;;
78205;SDS011;67480;48.920;12.880;2024-03-23T04:38:57;10.85;;;9.45;;
78205;SDS011;67480;48.920;12.880;2024-03-23T04:41:24;10.15;;;9.05;;
78205;SDS011;67480;48.920;12.880;2024-03-23T04:43:49;10.52;;;9.10;;
78205;SDS011;67480;48.920;12.880;2024-03-23T04:46:15;10.85;;;8.68;;
78205;SDS011;67480;48.920;12.880;2024-03-23T04:48:40;10.65;;;9.55;;
78205;SDS011;67480;48.920;12.880;2024-03-23T04:51:06;13.20;;;8.35;;
78205;SDS011;67480;48.920;12.880;2024-03-23T04:53:31;10.63;;;9.30;;
78205;SDS011;67480;48.920;12.880;2024-03-23T04:55:56;10.77;;;8.38;;
78205;SDS011;67480;48.920;12.880;2024-03-23T04:58:24;11.13;;;9.15;;
78205;SDS011;67480;48.920;12.880;2024-03-23T05:00:53;10.50;;;9.15;;
78205;SDS011;67480;48.920;12.880;2024-03-23T05:03:19;11.05;;;9.85;;
78205;SDS011;67480;48.920;12.880;2024-03-23T05:05:46;9.93;;;8.57;;
78205;SDS011;67480;48.920;12.880;2024-03-23T05:08:11;11.82;;;8.80;;
78205;SDS011;67480;48.920;12.880;2024-03-23T05:10:37;10.07;;;9.05;;
78205;SDS011;67480;48.920;12.880;2024-03-23T05:13:03;9.82;;;8.20;;
78205;SDS011;67480;48.920;12.880;2024-03-23T05:15:28;9.73;;;8.25;;
78205;SDS011;67480;48.920;12.880;2024-03-23T05:17:54;10.85;;;9.23;;
78205;SDS011;67480;48.920;12.880;2024-03-23T05:20:20;10.73;;;8.68;;
78205;SDS011;67480;48.920;12.880;2024-03-23T05:22:45;9.70;;;8.70;;
78205;SDS011;67480;48.920;12.880;2024-03-23T05:25:11;11.15;;;8.40;;
78205;SDS011;67480;48.920;12.880;2024-03-23T05:27:37;9.57;;;8.45;;
78205;SDS011;67480;48.920;12.880;2024-03-23T05:30:03;11.73;;;8.35;;
78205;SDS011;67480;48.920;12.880;2024-03-23T05:32:29;9.43;;;8.18;;
78205;SDS011;67480;48.920;12.880;2024-03-23T05:34:54;10.05;;;8.18;;
78205;SDS011;67480;48.920;12.880;2024-03-23T05:37:23;10.00;;;8.02;;
78205;SDS011;67480;48.920;12.880;2024-03-23T05:39:48;9.18;;;8.25;;
78205;SDS011;67480;48.920;12.880;2024-03-23T05:42:17;12.20;;;8.32;;
78205;SDS011;67480;48.920;12.880;2024-03-23T05:44:44;10.02;;;8.38;;
78205;SDS011;67480;48.920;12.880;2024-03-23T05:47:10;9.43;;;7.75;;
78205;SDS011;67480;48.920;12.880;2024-03-23T05:49:36;10.27;;;8.75;;
78205;SDS011;67480;48.920;12.880;2024-03-23T05:52:02;10.25;;;8.02;;
78205;SDS011;67480;48.920;12.880;2024-03-23T05:54:29;9.48;;;8.15;;
78205;SDS011;67480;48.920;12.880;2024-03-23T05:56:54;9.32;;;8.40;;
78205;SDS011;67480;48.920;12.880;2024-03-23T05:59:20;8.75;;;7.95;;
78205;SDS011;67480;48.920;12.880;2024-03-23T06:01:46;7.80;;;7.00;;
78205;SDS011;67480;48.920;12.880;2024-03-23T06:04:12;8.18;;;7.38;;
78205;SDS011;67480;48.920;12.880;2024-03-23T06:06:38;8.45;;;6.97;;
78205;SDS011;67480;48.920;12.880;2024-03-23T06:09:12;9.60;;;7.38;;
78205;SDS011;67480;48.920;12.880;2024-03-23T06:11:42;9.95;;;7.40;;
78205;SDS011;67480;48.920;12.880;2024-03-23T06:14:21;8.75;;;7.63;;
78205;SDS011;67480;48.920;12.880;2024-03-23T06:16:59;7.72;;;6.95;;
78205;SDS011;67480;48.920;12.880;2024-03-23T06:19:26;7.80;;;6.80;;
78205;SDS011;67480;48.920;12.880;2024-03-23T06:21:55;7.60;;;6.80;;
78205;SDS011;67480;48.920;12.880;2024-03-23T06:24:23;8.85;;;7.10;;
78205;SDS011;67480;48.920;12.880;2024-03-23T06:27:04;7.87;;;7.10;;
78205;SDS011;67480;48.920;12.880;2024-03-23T06:29:32;9.82;;;7.53;;
78205;SDS011;67480;48.920;12.880;2024-03-23T06:32:01;8.18;;;7.35;;
78205;SDS011;67480;48.920;12.880;2024-03-23T06:34:30;8.02;;;7.22;;
78205;SDS011;67480;48.920;12.880;2024-03-23T06:36:57;8.63;;;6.80;;
78205;SDS011;67480;48.920;12.880;2024-03-23T06:39:26;9.23;;;6.85;;
78205;SDS011;67480;48.920;12.880;2024-03-23T06:42:14;8.45;;;7.28;;
78205;SDS011;67480;48.920;12.880;2024-03-23T06:44:41;7.40;;;6.60;;
78205;SDS011;67480;48.920;12.880;2024-03-23T06:47:15;8.48;;;7.15;;
78205;SDS011;67480;48.920;12.880;2024-03-23T06:49:42;10.60;;;7.22;;
78205;SDS011;67480;48.920;12.880;2024-03-23T06:52:17;6.80;;;6.10;;
78205;SDS011;67480;48.920;12.880;2024-03-23T06:55:11;7.05;;;6.35;;
78205;SDS011;67480;48.920;12.880;2024-03-23T06:57:46;7.32;;;6.63;;
78205;SDS011;67480;48.920;12.880;2024-03-23T07:00:16;7.15;;;6.45;;
78205;SDS011;67480;48.920;12.880;2024-03-23T07:03:26;8.43;;;7.00;;
78205;SDS011;67480;48.920;12.880;2024-03-23T07:05:59;7.95;;;6.45;;
78205;SDS011;67480;48.920;12.880;2024-03-23T07:08:26;7.78;;;6.80;;
78205;SDS011;67480;48.920;12.880;2024-03-23T07:10:53;7.50;;;6.80;;
78205;SDS011;67480;48.920;12.880;2024-03-23T07:13:41;8.52;;;6.55;;
78205;SDS011;67480;48.920;12.880;2024-03-23T07:16:38;7.85;;;7.07;;
78205;SDS011;67480;48.920;12.880;2024-03-23T07:19:09;8.75;;;6.88;;
78205;SDS011;67480;48.920;12.880;2024-03-23T07:22:11;8.18;;;7.22;;
78205;SDS011;67480;48.920;12.880;2024-03-23T07:24:42;7.07;;;6.38;;
78205;SDS011;67480;48.920;12.880;2024-03-23T07:28:00;9.52;;;7.07;;
78205;SDS011;67480;48.920;12.880;2024-03-23T07:30:28;9.68;;;8.18;;
78205;SDS011;67480;48.920;12.880;2024-03-23T07:33:48;7.85;;;7.05;;
78205;SDS011;67480;48.920;12.880;2024-03-23T07:36:15;8.30;;;6.60;;
78205;SDS011;67480;48.920;12.880;2024-03-23T07:39:04;7.05;;;6.35;;
78205;SDS011;67480;48.920;12.880;2024-03-23T07:41:33;8.15;;;6.68;;
78205;SDS011;67480;48.920;12.880;2024-03-23T07:44:07;8.10;;;6.25;;
78205;SDS011;67480;48.920;12.880;2024-03-23T07:46:39;7.07;;;6.32;;
78205;SDS011;67480;48.920;12.880;2024-03-23T07:49:26;6.95;;;6.30;;
78205;SDS011;67480;48.920;12.880;2024-03-23T07:51:55;6.15;;;5.55;;
78205;SDS011;67480;48.920;12.880;2024-03-23T07:54:53;7.10;;;6.35;;
78205;SDS011;67480;48.920;12.880;2024-03-23T07:57:23;7.85;;;6.18;;
78205;SDS011;67480;48.920;12.880;2024-03-23T08:00:23;6.93;;;5.40;;
78205;SDS011;67480;48.920;12.880;2024-03-23T08:03:47;6.07;;;5.18;;
78205;SDS011;67480;48.920;12.880;2024-03-23T08:06:43;6.35;;;5.32;;
78205;SDS011;67480;48.920;12.880;2024-03-23T08:09:13;9.15;;;5.95;;
78205;SDS011;67480;48.920;12.880;2024-03-23T08:12:37;7.32;;;5.80;;
78205;SDS011;67480;48.920;12.880;2024-03-23T08:15:24;7.13;;;5.32;;
78205;SDS011;67480;48.920;12.880;2024-03-23T08:17:51;6.32;;;5.57;;
78205;SDS011;67480;48.920;12.880;2024-03-23T08:20:42;6.50;;;5.50;;
78205;SDS011;67480;48.920;12.880;2024-03-23T08:23:48;5.57;;;5.00;;
78205;SDS011;67480;48.920;12.880;2024-03-23T08:26:15;8.13;;;5.15;;
78205;SDS011;67480;48.920;12.880;2024-03-23T08:28:44;7.05;;;5.30;;
78205;SDS011;67480;48.920;12.880;2024-03-23T08:31:13;7.80;;;5.50;;
78205;SDS011;67480;48.920;12.880;2024-03-23T08:33:55;6.35;;;5.13;;
78205;SDS011;67480;48.920;12.880;2024-03-23T08:36:51;6.10;;;5.43;;
78205;SDS011;67480;48.920;12.880;2024-03-23T08:39:21;5.95;;;5.35;;
78205;SDS011;67480;48.920;12.880;2024-03-23T08:41:48;5.70;;;5.15;;
78205;SDS011;67480;48.920;12.880;2024-03-23T08:44:37;5.40;;;4.90;;
78205;SDS011;67480;48.920;12.880;2024-03-23T08:47:06;6.90;;;5.72;;
78205;SDS011;67480;48.920;12.880;2024-03-23T08:49:54;6.60;;;5.93;;
78205;SDS011;67480;48.920;12.880;2024-03-23T08:52:25;7.03;;;6.10;;
78205;SDS011;67480;48.920;12.880;2024-03-23T08:54:56;6.85;;;5.90;;
78205;SDS011;67480;48.920;12.880;2024-03-23T08:57:33;8.43;;;5.70;;
78205;SDS011;67480;48.920;12.880;2024-03-23T09:00:00;8.05;;;5.78;;
78205;SDS011;67480;48.920;12.880;2024-03-23T09:02:35;6.05;;;5.47;;
78205;SDS011;67480;48.920;12.880;2024-03-23T09:05:10;6.95;;;5.15;;
78205;SDS011;67480;48.920;12.880;2024-03-23T09:08:05;7.38;;;5.78;;
78205;SDS011;67480;48.920;12.880;2024-03-23T09:11:13;6.20;;;5.43;;
78205;SDS011;67480;48.920;12.880;2024-03-23T09:13:41;6.57;;;5.43;;
78205;SDS011;67480;48.920;12.880;2024-03-23T09:16:24;6.70;;;5.43;;
78205;SDS011;67480;48.920;12.880;2024-03-23T09:21:34;6.90;;;5.50;;
78205;SDS011;67480;48.920;12.880;2024-03-23T09:24:16;5.30;;;4.80;;
78205;SDS011;67480;48.920;12.880;2024-03-23T09:26:45;5.25;;;4.35;;
78205;SDS011;67480;48.920;12.880;2024-03-23T09:29:14;4.93;;;4.38;;
78205;SDS011;67480;48.920;12.880;2024-03-23T09:31:41;4.50;;;3.88;;
78205;SDS011;67480;48.920;12.880;2024-03-23T09:34:39;5.38;;;4.15;;
78205;SDS011;67480;48.920;12.880;2024-03-23T09:37:24;5.40;;;3.72;;
78205;SDS011;67480;48.920;12.880;2024-03-23T09:39:51;4.90;;;4.00;;
78205;SDS011;67480;48.920;12.880;2024-03-23T09:42:17;4.60;;;4.20;;
78205;SDS011;67480;48.920;12.880;2024-03-23T09:44:53;5.00;;;4.50;;
78205;SDS011;67480;48.920;12.880;2024-03-23T09:47:27;4.40;;;4.00;;
78205;SDS011;67480;48.920;12.880;2024-03-23T09:50:13;6.43;;;3.83;;
78205;SDS011;67480;48.920;12.880;2024-03-23T09:53:06;5.90;;;4.05;;
78205;SDS011;67480;48.920;12.880;2024-03-23T09:55:34;4.60;;;3.85;;
78205;SDS011;67480;48.920;12.880;2024-03-23T09:58:15;5.57;;;3.85;;
78205;SDS011;67480;48.920;12.880;2024-03-23T10:00:43;4.68;;;4.13;;
78205;SDS011;67480;48.920;12.880;2024-03-23T10:03:15;4.20;;;3.80;;
78205;SDS011;67480;48.920;12.880;2024-03-23T10:05:42;5.00;;;4.50;;
78205;SDS011;67480;48.920;12.880;2024-03-23T10:10:52;4.05;;;3.67;;
78205;SDS011;67480;48.920;12.880;2024-03-23T10:13:28;5.72;;;4.35;;
78205;SDS011;67480;48.920;12.880;2024-03-23T10:16:23;4.03;;;3.63;;
78205;SDS011;67480;48.920;12.880;2024-03-23T10:18:53;4.80;;;4.28;;
78205;SDS011;67480;48.920;12.880;2024-03-23T10:21:19;4.60;;;4.15;;
78205;SDS011;67480;48.920;12.880;2024-03-23T10:23:45;4.80;;;4.05;;
78205;SDS011;67480;48.920;12.880;2024-03-23T10:26:20;6.63;;;4.25;;
78205;SDS011;67480;48.920;12.880;2024-03-23T10:29:20;5.07;;;4.10;;
78205;SDS011;67480;48.920;12.880;2024-03-23T10:31:45;4.18;;;3.78;;
78205;SDS011;67480;48.920;12.880;2024-03-23T10:34:12;4.85;;;4.07;;
78205;SDS011;67480;48.920;12.880;2024-03-23T10:36:38;4.63;;;4.22;;
78205;SDS011;67480;48.920;12.880;2024-03-23T10:39:06;5.47;;;4.22;;
78205;SDS011;67480;48.920;12.880;2024-03-23T10:41:32;4.63;;;4.05;;
78205;SDS011;67480;48.920;12.880;2024-03-23T10:43:58;4.88;;;4.38;;
78205;SDS011;67480;48.920;12.880;2024-03-23T10:46:25;4.97;;;4.35;;
78205;SDS011;67480;48.920;12.880;2024-03-23T10:48:50;4.55;;;4.03;;
78205;SDS011;67480;48.920;12.880;2024-03-23T10:51:15;5.72;;;4.78;;
78205;SDS011;67480;48.920;12.880;2024-03-23T10:53:41;6.03;;;4.88;;
78205;SDS011;67480;48.920;12.880;2024-03-23T10:56:07;5.63;;;4.78;;
78205;SDS011;67480;48.920;12.880;2024-03-23T10:58:38;4.40;;;4.00;;
78205;SDS011;67480;48.920;12.880;2024-03-23T11:01:05;5.13;;;4.63;;
78205;SDS011;67480;48.920;12.880;2024-03-23T11:03:38;5.13;;;4.60;;
78205;SDS011;67480;48.920;12.880;2024-03-23T11:06:05;5.35;;;4.28;;
78205;SDS011;67480;48.920;12.880;2024-03-23T11:08:35;7.28;;;5.13;;
78205;SDS011;67480;48.920;12.880;2024-03-23T11:13:47;5.00;;;4.50;;
78205;SDS011;67480;48.920;12.880;2024-03-23T11:16:17;4.72;;;4.05;;
78205;SDS011;67480;48.920;12.880;2024-03-23T11:21:51;5.78;;;3.45;;
78205;SDS011;67480;48.920;12.880;2024-03-23T11:24:16;3.35;;;3.03;;
78205;SDS011;67480;48.920;12.880;2024-03-23T11:26:42;4.00;;;3.38;;
78205;SDS011;67480;48.920;12.880;2024-03-23T11:29:10;3.38;;;3.08;;
78205;SDS011;67480;48.920;12.880;2024-03-23T11:31:37;3.00;;;2.70;;
78205;SDS011;67480;48.920;12.880;2024-03-23T11:34:06;3.50;;;3.13;;
78205;SDS011;67480;48.920;12.880;2024-03-23T11:36:32;2.55;;;2.10;;
78205;SDS011;67480;48.920;12.880;2024-03-23T11:38:57;2.90;;;2.60;;
78205;SDS011;67480;48.920;12.880;2024-03-23T11:41:23;3.75;;;3.42;;
78205;SDS011;67480;48.920;12.880;2024-03-23T11:43:48;2.53;;;1.85;;
78205;SDS011;67480;48.920;12.880;2024-03-23T11:46:21;2.28;;;2.08;;
78205;SDS011;67480;48.920;12.880;2024-03-23T11:48:50;3.25;;;2.92;;
78205;SDS011;67480;48.920;12.880;2024-03-23T11:51:18;3.15;;;2.83;;
78205;SDS011;67480;48.920;12.880;2024-03-23T11:53:45;3.00;;;2.70;;
78205;SDS011;67480;48.920;12.880;2024-03-23T11:56:10;2.63;;;2.42;;
78205;SDS011;67480;48.920;12.880;2024-03-23T11:58:35;2.30;;;2.10;;
78205;SDS011;67480;48.920;12.880;2024-03-23T12:01:01;1.55;;;1.45;;
78205;SDS011;67480;48.920;12.880;2024-03-23T12:03:28;1.75;;;1.63;;
78205;SDS011;67480;48.920;12.880;2024-03-23T12:06:00;3.17;;;1.92;;
78205;SDS011;67480;48.920;12.880;2024-03-23T12:08:33;1.42;;;1.33;;
78205;SDS011;67480;48.920;12.880;2024-03-23T12:11:12;1.70;;;1.60;;
78205;SDS011;67480;48.920;12.880;2024-03-23T12:13:40;2.45;;;1.92;;
78205;SDS011;67480;48.920;12.880;2024-03-23T12:16:11;1.77;;;1.67;;
78205;SDS011;67480;48.920;12.880;2024-03-23T12:18:46;2.42;;;1.30;;
78205;SDS011;67480;48.920;12.880;2024-03-23T12:21:16;2.80;;;1.95;;
78205;SDS011;67480;48.920;12.880;2024-03-23T12:23:42;1.55;;;1.45;;
78205;SDS011;67480;48.920;12.880;2024-03-23T12:26:10;1.30;;;1.20;;
78205;SDS011;67480;48.920;12.880;2024-03-23T12:28:35;2.08;;;1.80;;
78205;SDS011;67480;48.920;12.880;2024-03-23T12:31:02;2.05;;;1.67;;
78205;SDS011;67480;48.920;12.880;2024-03-23T12:33:27;2.28;;;2.08;;
78205;SDS011;67480;48.920;12.880;2024-03-23T12:35:53;1.50;;;1.40;;
78205;SDS011;67480;48.920;12.880;2024-03-23T12:38:19;1.98;;;1.88;;
78205;SDS011;67480;48.920;12.880;2024-03-23T12:40:47;1.40;;;1.30;;
78205;SDS011;67480;48.920;12.880;2024-03-23T12:43:16;1.35;;;1.10;;
78205;SDS011;67480;48.920;12.880;2024-03-23T12:45:45;1.05;;;1.05;;
78205;SDS011;67480;48.920;12.880;2024-03-23T12:48:12;2.00;;;1.80;;
78205;SDS011;67480;48.920;12.880;2024-03-23T12:50:37;1.50;;;1.40;;
78205;SDS011;67480;48.920;12.880;2024-03-23T12:53:02;1.20;;;1.10;;
78205;SDS011;67480;48.920;12.880;2024-03-23T12:55:28;3.35;;;1.20;;
78205;SDS011;67480;48.920;12.880;2024-03-23T12:57:53;1.48;;;1.38;;
78205;SDS011;67480;48.920;12.880;2024-03-23T13:00:19;1.30;;;1.20;;
78205;SDS011;67480;48.920;12.880;2024-03-23T13:02:45;1.30;;;1.20;;
78205;SDS011;67480;48.920;12.880;2024-03-23T13:05:10;2.92;;;1.10;;
78205;SDS011;67480;48.920;12.880;2024-03-23T13:07:35;1.00;;;1.00;;
78205;SDS011;67480;48.920;12.880;2024-03-23T13:10:02;1.98;;;1.38;;
78205;SDS011;67480;48.920;12.880;2024-03-23T13:12:28;1.77;;;1.40;;
78205;SDS011;67480;48.920;12.880;2024-03-23T13:14:53;1.50;;;1.40;;
78205;SDS011;67480;48.920;12.880;2024-03-23T13:17:18;1.60;;;1.50;;
78205;SDS011;67480;48.920;12.880;2024-03-23T13:19:44;2.03;;;1.50;;
78205;SDS011;67480;48.920;12.880;2024-03-23T13:22:09;2.20;;;2.00;;
78205;SDS011;67480;48.920;12.880;2024-03-23T13:24:38;4.43;;;2.30;;
78205;SDS011;67480;48.920;12.880;2024-03-23T13:27:03;6.38;;;2.50;;
78205;SDS011;67480;48.920;12.880;2024-03-23T13:29:33;2.45;;;1.48;;
78205;SDS011;67480;48.920;12.880;2024-03-23T13:31:59;2.80;;;1.42;;
78205;SDS011;67480;48.920;12.880;2024-03-23T13:34:25;2.78;;;2.05;;
78205;SDS011;67480;48.920;12.880;2024-03-23T13:36:50;1.75;;;1.52;;
78205;SDS011;67480;48.920;12.880;2024-03-23T13:39:15;2.05;;;1.85;;
78205;SDS011;67480;48.920;12.880;2024-03-23T13:41:41;2.30;;;2.03;;
78205;SDS011;67480;48.920;12.880;2024-03-23T13:44:13;2.03;;;1.40;;
78205;SDS011;67480;48.920;12.880;2024-03-23T13:46:39;1.52;;;1.40;;
78205;SDS011;67480;48.920;12.880;2024-03-23T13:49:07;1.98;;;1.60;;
78205;SDS011;67480;48.920;12.880;2024-03-23T13:51:34;3.90;;;1.88;;
78205;SDS011;67480;48.920;12.880;2024-03-23T13:53:59;2.47;;;1.73;;
78205;SDS011;67480;48.920;12.880;2024-03-23T13:56:26;1.85;;;1.67;;
78205;SDS011;67480;48.920;12.880;2024-03-23T13:58:53;2.67;;;1.95;;
78205;SDS011;67480;48.920;12.880;2024-03-23T14:01:19;3.33;;;1.60;;
78205;SDS011;67480;48.920;12.880;2024-03-23T14:03:44;3.35;;;1.70;;
78205;SDS011;67480;48.920;12.880;2024-03-23T14:06:10;2.05;;;1.70;;
78205;SDS011;67480;48.920;12.880;2024-03-23T14:08:36;2.97;;;2.05;;
78205;SDS011;67480;48.920;12.880;2024-03-23T14:11:04;3.10;;;1.67;;
78205;SDS011;67480;48.920;12.880;2024-03-23T14:13:32;2.05;;;1.70;;
78205;SDS011;67480;48.920;12.880;2024-03-23T14:15:58;1.70;;;1.60;;
78205;SDS011;67480;48.920;12.880;2024-03-23T14:18:24;3.15;;;1.60;;
78205;SDS011;67480;48.920;12.880;2024-03-23T14:20:50;3.00;;;1.52;;
78205;SDS011;67480;48.920;12.880;2024-03-23T14:23:16;3.22;;;1.70;;
78205;SDS011;67480;48.920;12.880;2024-03-23T14:25:42;4.32;;;1.80;;
78205;SDS011;67480;48.920;12.880;2024-03-23T14:28:07;3.92;;;1.60;;
78205;SDS011;67480;48.920;12.880;2024-03-23T14:30:38;1.90;;;1.60;;
78205;SDS011;67480;48.920;12.880;2024-03-23T14:33:04;2.25;;;1.75;;
78205;SDS011;67480;48.920;12.880;2024-03-23T14:35:30;2.30;;;1.90;;
78205;SDS011;67480;48.920;12.880;2024-03-23T14:37:56;2.28;;;1.80;;
78205;SDS011;67480;48.920;12.880;2024-03-23T14:40:21;2.55;;;1.60;;
78205;SDS011;67480;48.920;12.880;2024-03-23T14:42:47;5.10;;;2.25;;
78205;SDS011;67480;48.920;12.880;2024-03-23T14:45:12;3.45;;;1.90;;
78205;SDS011;67480;48.920;12.880;2024-03-23T14:47:37;2.78;;;1.85;;
78205;SDS011;67480;48.920;12.880;2024-03-23T14:50:03;2.13;;;1.77;;
78205;SDS011;67480;48.920;12.880;2024-03-23T14:52:28;3.05;;;2.00;;
78205;SDS011;67480;48.920;12.880;2024-03-23T14:54:54;6.35;;;1.70;;
78205;SDS011;67480;48.920;12.880;2024-03-23T14:57:21;2.42;;;1.70;;
78205;SDS011;67480;48.920;12.880;2024-03-23T14:59:47;2.97;;;2.00;;
78205;SDS011;67480;48.920;12.880;2024-03-23T15:02:12;2.50;;;1.95;;
78205;SDS011;67480;48.920;12.880;2024-03-23T15:04:38;3.30;;;2.00;;
78205;SDS011;67480;48.920;12.880;2024-03-23T15:07:07;3.15;;;2.15;;
78205;SDS011;67480;48.920;12.880;2024-03-23T15:09:32;3.20;;;2.20;;
78205;SDS011;67480;48.920;12.880;2024-03-23T15:11:57;2.40;;;2.00;;
78205;SDS011;67480;48.920;12.880;2024-03-23T15:14:23;6.38;;;2.72;;
78205;SDS011;67480;48.920;12.880;2024-03-23T15:16:49;4.82;;;2.50;;
78205;SDS011;67480;48.920;12.880;2024-03-23T15:19:15;3.60;;;2.45;;
78205;SDS011;67480;48.920;12.880;2024-03-23T15:21:42;3.40;;;2.58;;
78205;SDS011;67480;48.920;12.880;2024-03-23T15:24:08;3.78;;;2.42;;
78205;SDS011;67480;48.920;12.880;2024-03-23T15:26:35;2.45;;;2.10;;
78205;SDS011;67480;48.920;12.880;2024-03-23T15:29:01;4.07;;;2.17;;
78205;SDS011;67480;48.920;12.880;2024-03-23T15:31:26;2.88;;;2.30;;
78205;SDS011;67480;48.920;12.880;2024-03-23T15:33:52;4.53;;;2.70;;
78205;SDS011;67480;48.920;12.880;2024-03-23T15:36:18;3.58;;;2.55;;
78205;SDS011;67480;48.920;12.880;2024-03-23T15:38:44;4.07;;;2.25;;
78205;SDS011;67480;48.920;12.880;2024-03-23T15:41:10;2.45;;;2.25;;
78205;SDS011;67480;48.920;12.880;2024-03-23T15:43:35;5.18;;;2.40;;
78205;SDS011;67480;48.920;12.880;2024-03-23T15:46:01;4.80;;;3.25;;
78205;SDS011;67480;48.920;12.880;2024-03-23T15:48:28;3.55;;;2.53;;
78205;SDS011;67480;48.920;12.880;2024-03-23T15:50:54;3.35;;;2.72;;
78205;SDS011;67480;48.920;12.880;2024-03-23T15:53:21;4.50;;;2.50;;
78205;SDS011;67480;48.920;12.880;2024-03-23T15:56:00;4.22;;;2.65;;
78205;SDS011;67480;48.920;12.880;2024-03-23T15:58:26;6.20;;;3.88;;
78205;SDS011;67480;48.920;12.880;2024-03-23T16:00:56;3.92;;;2.40;;
78205;SDS011;67480;48.920;12.880;2024-03-23T16:03:22;3.38;;;2.50;;
78205;SDS011;67480;48.920;12.880;2024-03-23T16:05:52;5.47;;;3.50;;
78205;SDS011;67480;48.920;12.880;2024-03-23T16:08:18;6.50;;;4.22;;
78205;SDS011;67480;48.920;12.880;2024-03-23T16:10:43;7.85;;;3.92;;
78205;SDS011;67480;48.920;12.880;2024-03-23T16:13:09;11.15;;;8.00;;
78205;SDS011;67480;48.920;12.880;2024-03-23T16:15:34;9.68;;;8.10;;
78205;SDS011;67480;48.920;12.880;2024-03-23T16:17:59;12.77;;;8.05;;
78205;SDS011;67480;48.920;12.880;2024-03-23T16:20:25;7.38;;;5.60;;
78205;SDS011;67480;48.920;12.880;2024-03-23T16:22:50;6.50;;;4.25;;
78205;SDS011;67480;48.920;12.880;2024-03-23T16:25:15;4.18;;;3.70;;
78205;SDS011;67480;48.920;12.880;2024-03-23T16:27:40;6.47;;;3.38;;
78205;SDS011;67480;48.920;12.880;2024-03-23T16:30:07;5.57;;;3.83;;
78205;SDS011;67480;48.920;12.880;2024-03-23T16:32:32;8.65;;;5.15;;
78205;SDS011;67480;48.920;12.880;2024-03-23T16:35:00;8.48;;;5.85;;
78205;SDS011;67480;48.920;12.880;2024-03-23T16:37:25;13.68;;;8.80;;
78205;SDS011;67480;48.920;12.880;2024-03-23T16:39:51;7.20;;;5.15;;
78205;SDS011;67480;48.920;12.880;2024-03-23T16:42:16;5.72;;;4.47;;
78205;SDS011;67480;48.920;12.880;2024-03-23T16:44:42;4.43;;;3.67;;
78205;SDS011;67480;48.920;12.880;2024-03-23T16:47:07;6.93;;;3.80;;
78205;SDS011;67480;48.920;12.880;2024-03-23T16:49:33;5.63;;;3.97;;
78205;SDS011;67480;48.920;12.880;2024-03-23T16:51:59;8.32;;;3.72;;